Terminal Aerodrome Forecast
Issued by NWS

Home | Current Version | Previous Version | Text Only | Print | Product List | Glossary On
Versions: 1 2 3 4 5 6 7 8 9 10 11 12 13 14 15
000
FTAK31 PAFA 271126
TAFAOM
TAF
PAOM 271126Z 2712/2812 VRB04KT P6SM SCT017 OVC220
      TEMPO 2713/2716 2SM BR BKN017
     FM271600 VRB03KT P6SM FEW017 SCT200
     FM280100 05006KT P6SM SKC=

USA.gov is the U.S. government's official web portal to all federal, state and local government web resources and services.